Pagina principale
METAR-TAF:

METAR-TAF

Aeroporti :

Seyresse

Dax, Francia

latitudine: 43-41N, longitudine: 001-04W, altezza: 32 m

Osservazione

Il bollettino è stato emesso 12 minuti fa, alle 03:00 UTC
Vento 3 kt da sud
Temperature 14°C
Umidità 67%
Pressione 1009 hPa
Visibilità 10 km o più

METAR: LFBY 250300Z AUTO 17003KT 9999 // ////// 14/08 Q1009

Ora: 04:12 (03:12 UTC)


TAF: mancante

Osservazioni e previsioni meteorologiche di più di 4000 aeroporti (messaggi METAR e TAF).

Le stazioni disponibili sono rappresentate dai dischi gialli e rossi sulla carta.

Puntare il mouse per vedere il nome della stazione.

Clicca sopra per visualizzare le osservazioni e previsioni meteorologiche.

Per cambiare la mappa : fare clic sui pulsanti verdi con una croce nera per ingrandire, il pulsante verde con un trattino per diminuire, o sulla freccia verde per le mappe adiacenti.


METAR-TAF: